Fairbanks International, AK

9:42 PM AKDT on September 16, 2014 (GMT -0800)
Eielson Air Force Base | Change Station
CLOSE
Current Station
Airport
Location: Fairbanks Eiels,
Elevation: 548 ft
Nearby Weather Stations

Elev 548 ft 64.67 °N, 147.10 °W | Updated 44 minutes ago

Clear
Clear
44 °F
Feels Like 44 °F
N
0
Wind Variable Wind from North

Today
High -- | Low -- °F
--% Chance of Precip.
Yesterday
High -- | Low -- °F
Precip. -- in
7:17 AM 8:13 PM
Last Quarter, 39% visible
Pressure 29.61 in
Visibility 10.0 miles
Clouds Clear
Dew Point 39 °F
Humidity 84%
Rainfall 0.00 in
Snow Depth 1 in , 0 in , 0 in
UV 0 out of 12
Pollen Not available.
Air Quality Not available.
Flu Activity Not available.
METAR PAEI 170458Z AUTO 00000KT 10SM CLR 07/04 A2959 RMK AO2 SLP027 T00660041 $

More Conditions Fewer Conditions

Pressure 29.61 in
Visibility 10.0 miles
Clouds Clear
Dew Point 39 °F
Humidity 84%
Rainfall 0.00 in
Snow Depth 1 in , 0 in , 0 in
UV 0 out of 12
Pollen Not available.
Air Quality Not available.
Flu Activity Not available.
METAR PAEI 170458Z AUTO 00000KT 10SM CLR 07/04 A2959 RMK AO2 SLP027 T00660041 $

More Conditions Fewer Conditions

10-Day Weather Forecast

Almanac

Astronomy

Sep. 16, 2014 Rise Set
Actual Time 7:17 AM AKDT 8:13 PM AKDT
Civil Twilight 6:26 AM AKDT 9:03 PM AKDT
Nautical Twilight 5:23 AM AKDT 10:05 PM AKDT
Astronomical Twilight 4:05 AM AKDT 11:22 PM AKDT
Moon 11:47 PM AKDT (9/16) 5:26 PM AKDT (9/16)
Length of Visible Light 14h 36m
Length of Day
12h 56m
Tomorrow will be 6m 38s shorter.
Last Quarter, 39% of the Moon is Illuminated
Sep 17
Last Quarter
Sep 24
New
Oct 1
First Quarter
Oct 8
Full
Oct 15
Last Quarter

Yesterday's Extremes

State Highs State Lows

Community

WunderPhotos

Upload Photos

1,753,968 photos uploaded!

Nearby

Snow Depth

Station Depth Elevation
Eagle Summit 1 in 3650 ft
Coldfoot 0 in 1040 ft
Upper Tsaina River 0 in 1750 ft
Upper Chena 1 in 2850 ft
Susitna Valley High 2 in 375 ft

Earthquake Activity

City Distance Mag. Time & Date
No recent earthquake activity has been reported nearby.
Minimum magnitude displayed is 2.5.

Coastal Water Temperatures

Place Temperature
No Stations Reporting

Nearby Weather Stations